Weather Station Data

Station Data Captured at Five Minute Intervals Since Midnight Local Time


Date Time Temp. RH % Dew Pt. Wind Speed Wind Dir. Peak Wind Wind Chill Pressure Precip. Solar W/m2 ET
10/22/20 4:45a 59.3 86 55.1 0.0 --- 0.0 59.3 30.138 0.00 0 0.000
10/22/20 4:40a 59.4 86 55.2 0.0 --- 0.0 59.4 30.138 0.00 0 0.000
10/22/20 4:35a 59.5 86 55.3 0.0 --- 0.0 59.5 30.138 0.00 0 0.000
10/22/20 4:30a 59.6 86 55.4 0.0 --- 0.0 59.6 30.140 0.00 0 0.000
10/22/20 4:25a 59.8 87 55.9 0.0 --- 0.0 59.8 30.140 0.00 0 0.000
10/22/20 4:20a 59.9 87 56.0 0.0 --- 0.0 59.9 30.141 0.00 0 0.000
10/22/20 4:15a 60.0 87 56.1 0.0 --- 0.0 60.0 30.140 0.00 0 0.000
10/22/20 4:10a 60.0 87 56.1 0.0 --- 0.0 60.0 30.140 0.00 0 0.000
10/22/20 4:05a 60.0 87 56.1 0.0 --- 0.0 60.0 30.139 0.00 0 0.000
10/22/20 4:00a 59.9 87 56.0 0.0 --- 0.0 59.9 30.139 0.00 0 0.000
10/22/20 3:55a 59.8 87 55.9 0.0 --- 0.0 59.8 30.140 0.00 0 0.000
10/22/20 3:50a 59.8 87 55.9 0.0 --- 0.0 59.8 30.139 0.00 0 0.000
10/22/20 3:45a 59.7 86 55.5 0.0 --- 0.0 59.7 30.140 0.00 0 0.000
10/22/20 3:40a 59.8 87 55.9 0.0 --- 0.0 59.8 30.138 0.00 0 0.000
10/22/20 3:35a 59.9 87 56.0 0.0 --- 0.0 59.9 30.138 0.00 0 0.000
10/22/20 3:30a 59.9 87 56.0 0.0 --- 0.0 59.9 30.139 0.00 0 0.000
10/22/20 3:25a 59.9 87 56.0 0.0 --- 0.0 59.9 30.139 0.00 0 0.000
10/22/20 3:20a 59.9 87 56.0 0.0 --- 0.0 59.9 30.140 0.00 0 0.000
10/22/20 3:15a 59.8 86 55.6 0.0 --- 0.0 59.8 30.141 0.00 0 0.000
10/22/20 3:10a 59.8 86 55.6 0.0 --- 0.0 59.8 30.141 0.00 0 0.000
10/22/20 3:05a 59.9 86 55.7 0.0 --- 0.0 59.9 30.142 0.00 0 0.000
10/22/20 3:00a 60.0 86 55.8 0.0 --- 0.0 60.0 30.142 0.00 0 0.000
10/22/20 2:55a 60.2 86 56.0 0.0 --- 0.0 60.2 30.143 0.00 0 0.000
10/22/20 2:50a 60.3 86 56.1 0.0 --- 0.0 60.3 30.143 0.00 0 0.000
10/22/20 2:45a 60.3 87 56.4 0.0 --- 0.0 60.3 30.143 0.00 0 0.000
10/22/20 2:40a 60.3 86 56.1 0.0 --- 0.0 60.3 30.143 0.00 0 0.000
10/22/20 2:35a 60.3 86 56.1 0.0 --- 0.0 60.3 30.143 0.00 0 0.000
10/22/20 2:30a 60.4 86 56.2 0.0 --- 0.0 60.4 30.143 0.00 0 0.000
10/22/20 2:25a 60.4 86 56.2 0.0 --- 0.0 60.4 30.144 0.00 0 0.000
10/22/20 2:20a 60.6 86 56.4 0.0 --- 0.0 60.6 30.143 0.00 0 0.000
10/22/20 2:15a 60.9 86 56.7 0.0 --- 0.0 60.9 30.145 0.00 0 0.000
10/22/20 2:10a 61.2 86 57.0 0.0 --- 0.0 61.2 30.146 0.00 0 0.000
10/22/20 2:05a 61.4 86 57.2 0.0 --- 0.0 61.4 30.147 0.00 0 0.000
10/22/20 2:00a 61.6 86 57.4 0.0 --- 0.0 61.6 30.149 0.00 0 0.000
10/22/20 1:55a 61.6 86 57.4 0.0 --- 0.0 61.6 30.150 0.00 0 0.000
10/22/20 1:50a 61.6 86 57.4 0.0 --- 0.0 61.6 30.151 0.00 0 0.000
10/22/20 1:45a 61.6 86 57.4 0.0 --- 0.0 61.6 30.149 0.00 0 0.000
10/22/20 1:40a 61.7 86 57.5 0.0 --- 0.0 61.7 30.148 0.00 0 0.000
10/22/20 1:35a 61.8 86 57.6 0.0 --- 0.0 61.8 30.150 0.00 0 0.000
10/22/20 1:30a 61.9 86 57.7 0.0 --- 0.0 61.9 30.151 0.00 0 0.000
10/22/20 1:25a 62.0 86 57.8 0.0 --- 0.0 62.0 30.152 0.00 0 0.000
10/22/20 1:20a 62.1 86 57.9 0.0 NNW 1.0 62.1 30.153 0.00 0 0.000
10/22/20 1:15a 62.2 86 58.0 0.0 NNW 1.0 62.2 30.152 0.00 0 0.000
10/22/20 1:10a 62.3 86 58.1 0.0 --- 0.0 62.3 30.154 0.00 0 0.000
10/22/20 1:05a 62.3 86 58.1 0.0 --- 0.0 62.3 30.155 0.00 0 0.000
10/22/20 1:00a 62.3 86 58.1 0.0 --- 0.0 62.3 30.156 0.00 0 0.000
10/22/20 12:55a 62.3 86 58.1 0.0 NNW 1.0 62.3 30.157 0.00 0 0.000
10/22/20 12:50a 62.4 86 58.2 0.0 NNW 1.0 62.4 30.158 0.00 0 0.000
10/22/20 12:45a 62.5 86 58.3 1.0 NNW 1.0 62.5 30.160 0.00 0 0.000
10/22/20 12:40a 62.5 86 58.3 0.0 --- 0.0 62.5 30.161 0.00 0 0.000
10/22/20 12:35a 62.5 86 58.3 0.0 NNW 1.0 62.5 30.161 0.00 0 0.000
10/22/20 12:30a 62.6 86 58.4 0.0 NNW 1.0 62.6 30.162 0.00 0 0.000
10/22/20 12:25a 62.7 86 58.5 0.0 NNW 2.0 62.7 30.164 0.00 0 0.000
10/22/20 12:20a 62.8 86 58.5 1.0 NNW 2.0 62.8 30.165 0.00 0 0.000
10/22/20 12:15a 62.9 86 58.6 1.0 NNW 2.0 62.9 30.167 0.00 0 0.000
10/22/20 12:10a 62.9 86 58.6 0.0 NNW 1.0 62.9 30.167 0.00 0 0.000
10/22/20 12:05a 62.9 86 58.6 0.0 NNW 1.0 62.9 30.171 0.00 0 0.000
10/22/20 12:00a 62.9 86 58.6 0.0 NNW 1.0 62.9 30.170 0.00 0 0.000

13,798 Page Views